Wilton Manors, Florida
Current Conditions -  °F | °C
As of 2:53 PM on Monday 24 Nov 2014 (Local Time) from KFXE Reporting Station
Scattered Clouds Scattered Clouds  
Wind Chill: 86°   Ceiling: Unl
Heat Index: 93°   Visibility: 10mi
Dew Point: 73°   Wind: 12mph
Humidity: 65%   Direction: 140°SE
Pressure: 29.94"   Gusts: NA
Location:  26.1649°N, 80.1136°W
Report Text: KFXE 241953Z 14010KT 10SM FEW021 SCT027 30/23 A2994 RMK AO2 SLP142 T03000228
Loading
Personal Weather Stations






























Interactive Weather Map New forecast layout! Learn more

10-Day Weather Forecast

Advertisements
Track Severe Weather on mobile